Time;durP1;ratioP1;P1;durP2;ratioP2;P2;SDS_P1;SDS_P2;PMS_P1;PMS_P2;Temp;Humidity;BMP_temperature;BMP_pressure;BME280_temperature;BME280_humidity;BME280_pressure;Samples;Min_cycle;Max_cycle;Signal;HPM_P1;HPM_P2
2021/11/19 14:12:09;;;;;;;7.58;5.80;;;;;;;5.87;100.00;98768.28;1816418;78;23501;-64
2021/11/19 14:14:40;;;;;;;8.85;5.92;;;;;;;5.84;100.00;98765.20;1751914;80;21021;-66
2021/11/19 14:17:11;;;;;;;9.13;5.97;;;;;;;5.85;100.00;98763.47;1775749;80;21445;-66
2021/11/19 14:22:25;;;;;;;6.45;4.60;;;;;;;5.86;100.00;98777.88;1775395;80;21187;-64
2021/11/19 14:25:10;;;;;;;6.80;4.78;;;;;;;5.89;100.00;98761.31;1779139;80;21006;-65
2021/11/19 14:27:42;;;;;;;6.62;4.78;;;;;;;5.90;100.00;98769.64;1785129;80;21765;-67
2021/11/19 14:30:30;;;;;;;7.83;4.78;;;;;;;5.89;100.00;98775.31;1789616;79;21112;-67
2021/11/19 14:33:10;;;;;;;6.03;4.65;;;;;;;5.88;100.00;98773.52;1789540;79;20933;-67
2021/11/19 14:35:51;;;;;;;6.17;4.42;;;;;;;5.90;100.00;98770.95;1789548;80;20980;-66
2021/11/19 14:38:37;;;;;;;6.08;4.28;;;;;;;5.91;100.00;98758.30;1789567;80;20944;-64
2021/11/19 14:41:28;;;;;;;7.55;4.10;;;;;;;5.92;100.00;98764.86;1789528;80;20873;-63
2021/11/19 14:43:59;;;;;;;4.90;3.77;;;;;;;5.93;100.00;98770.53;1753370;80;21104;-62
2021/11/19 14:46:32;;;;;;;4.53;3.70;;;;;;;5.92;100.00;98769.22;1789670;80;21019;-67
2021/11/19 14:49:07;;;;;;;4.75;3.80;;;;;;;5.91;100.00;98772.70;1789680;80;20928;-67
2021/11/19 14:51:42;;;;;;;3.90;3.60;;;;;;;5.92;100.00;98770.52;1789641;80;21424;-67
2021/11/19 14:54:22;;;;;;;5.58;3.90;;;;;;;5.95;100.00;98777.09;1789775;79;20901;-66
2021/11/19 14:57:24;;;;;;;4.95;3.62;;;;;;;5.94;100.00;98781.45;1789597;80;21045;-64
2021/11/19 15:00:01;;;;;;;4.67;3.70;;;;;;;5.93;100.00;98778.39;1786240;80;20885;-62
2021/11/19 15:02:38;;;;;;;7.17;3.58;;;;;;;5.95;100.00;98781.02;1765117;80;20954;-62
2021/11/19 15:05:19;;;;;;;5.40;3.45;;;;;;;5.97;100.00;98775.35;1766922;80;21416;-62
2021/11/19 15:08:02;;;;;;;4.45;3.83;;;;;;;5.99;100.00;98778.86;1702359;83;20978;-68
2021/11/19 15:10:41;;;;;;;3.90;3.42;;;;;;;6.00;100.00;98781.48;1715709;82;21831;-68
2021/11/19 15:13:23;;;;;;;4.45;3.77;;;;;;;6.01;100.00;98790.22;1706737;83;20924;-68
2021/11/19 15:16:05;;;;;;;5.37;4.20;;;;;;;6.02;100.00;98793.70;1698812;83;21003;-65
2021/11/19 15:18:49;;;;;;;7.23;5.00;;;;;;;6.03;100.00;98784.55;1712433;83;20940;-70
2021/11/19 15:21:25;;;;;;;6.00;4.60;;;;;;;6.08;100.00;98779.34;1773583;80;20978;-66
2021/11/19 15:24:14;;;;;;;4.62;4.12;;;;;;;6.12;100.00;98785.04;1772583;81;21034;-67
2021/11/19 15:26:49;;;;;;;4.12;3.35;;;;;;;6.15;100.00;98781.13;1764003;80;21651;-71
2021/11/19 15:29:28;;;;;;;3.60;3.30;;;;;;;6.19;100.00;98775.08;1767010;80;21092;-72
2021/11/19 15:32:29;;;;;;;4.87;3.45;;;;;;;6.25;100.00;98786.89;1759624;80;21495;-72
2021/11/19 15:35:40;;;;;;;6.78;3.30;;;;;;;6.27;100.00;98784.72;1761681;80;20973;-70
2021/11/19 15:38:31;;;;;;;4.80;3.22;;;;;;;6.28;100.00;98785.16;1760788;80;22115;-69
2021/11/19 15:41:01;;;;;;;5.58;3.58;;;;;;;6.30;100.00;98782.55;1759773;80;20934;-71
2021/11/19 15:43:28;;;;;;;4.78;3.40;;;;;;;6.32;100.00;98782.13;1764085;80;21567;-70
2021/11/19 15:46:22;;;;;;;4.55;3.50;;;;;;;6.34;100.00;98782.13;1771800;80;20900;-70
2021/11/19 15:48:54;;;;;;;6.28;4.53;;;;;;;6.34;100.00;98781.70;1758764;80;20993;-68
2021/11/19 15:51:29;;;;;;;7.05;4.28;;;;;;;6.33;100.00;98777.33;1739253;81;21140;-67
2021/11/19 15:54:39;;;;;;;5.42;4.30;;;;;;;6.34;100.00;98772.96;1763205;80;21431;-67
2021/11/19 15:57:48;;;;;;;7.12;5.08;;;;;;;6.36;100.00;98766.86;1758975;80;20963;-64
2021/11/19 16:00:24;;;;;;;9.73;7.03;;;;;;;6.42;100.00;98768.20;1764116;80;21007;-66
2021/11/19 16:03:30;;;;;;;6.58;5.20;;;;;;;6.47;100.00;98772.14;1757817;80;21026;-65
2021/11/19 16:06:12;;;;;;;10.18;7.42;;;;;;;6.52;100.00;98770.42;1766328;80;21409;-66
2021/11/19 16:08:45;;;;;;;8.78;6.20;;;;;;;6.60;100.00;98768.27;1764462;80;28335;-64
2021/11/19 16:11:54;;;;;;;5.17;4.20;;;;;;;6.66;100.00;98763.52;1762045;80;20908;-65
2021/11/19 16:14:29;;;;;;;5.42;3.87;;;;;;;6.73;100.00;98767.02;1763668;80;21135;-67
2021/11/19 16:17:00;;;;;;;4.25;3.67;;;;;;;6.79;100.00;98762.67;1735429;81;20979;-66
2021/11/19 16:19:28;;;;;;;6.33;5.60;;;;;;;6.85;100.00;98765.75;1763753;80;21759;-67
2021/11/19 16:21:59;;;;;;;4.28;3.70;;;;;;;6.91;100.00;98765.32;1760967;80;20852;-67
2021/11/19 16:24:31;;;;;;;6.12;3.83;;;;;;;6.97;100.00;98763.59;1759235;80;20939;-66
2021/11/19 16:27:21;;;;;;;5.22;4.17;;;;;;;7.01;100.00;98770.59;1753581;80;21419;-65
2021/11/19 16:29:55;;;;;;;5.65;4.33;;;;;;;7.03;100.00;98765.78;1762196;80;20965;-70
2021/11/19 16:32:22;;;;;;;7.05;5.00;;;;;;;7.07;100.00;98769.28;1762959;80;21813;-66
2021/11/19 16:34:51;;;;;;;5.28;3.90;;;;;;;7.10;100.00;98763.64;1760254;80;20925;-69
2021/11/19 16:37:19;;;;;;;4.50;3.87;;;;;;;7.13;100.00;98757.52;1766770;80;20988;-64
2021/11/19 16:39:48;;;;;;;5.30;4.12;;;;;;;7.15;100.00;98750.53;1757706;80;20948;-67
2021/11/19 16:42:17;;;;;;;5.45;4.70;;;;;;;7.18;100.00;98758.41;1760643;80;21010;-70
2021/11/19 16:44:47;;;;;;;4.20;3.47;;;;;;;7.20;100.00;98754.03;1760275;80;21969;-72
2021/11/19 16:47:15;;;;;;;3.92;3.17;;;;;;;7.23;100.00;98754.91;1759229;80;20937;-70
2021/11/19 16:49:43;;;;;;;4.53;3.15;;;;;;;7.28;100.00;98762.78;1762259;80;20986;-72
2021/11/19 16:52:19;;;;;;;2.92;2.58;;;;;;;7.31;100.00;98757.53;1760104;80;21026;-71
2021/11/19 16:54:53;;;;;;;3.45;2.67;;;;;;;7.33;100.00;98758.41;1764491;80;21367;-70
2021/11/19 16:57:32;;;;;;;3.77;2.90;;;;;;;7.35;100.00;98754.48;1759437;80;21161;-70
2021/11/19 17:00:08;;;;;;;3.30;2.50;;;;;;;7.36;100.00;98743.98;1758362;80;21486;-71
2021/11/19 17:02:37;;;;;;;4.97;2.80;;;;;;;7.39;100.00;98742.67;1756461;80;20942;-71
2021/11/19 17:05:08;;;;;;;3.65;3.15;;;;;;;7.38;100.00;98740.92;1763456;80;21457;-72
2021/11/19 17:07:35;;;;;;;3.47;3.17;;;;;;;7.37;100.00;98744.42;1760774;80;21544;-73
2021/11/19 17:10:04;;;;;;;3.87;3.47;;;;;;;7.36;100.00;98741.36;1759146;80;21091;-69
2021/11/19 17:12:32;;;;;;;5.22;4.25;;;;;;;7.35;100.00;98746.17;1761003;80;21026;-63
2021/11/19 17:14:59;;;;;;;4.40;3.98;;;;;;;7.36;100.00;98741.36;1763851;80;21086;-62
2021/11/19 17:17:28;;;;;;;3.90;3.60;;;;;;;7.35;100.00;98743.55;1763274;80;21558;-61
2021/11/19 17:19:57;;;;;;;4.67;3.92;;;;;;;7.34;100.00;98739.17;1757997;80;21721;-61
2021/11/19 17:22:25;;;;;;;3.70;3.40;;;;;;;7.31;100.00;98741.80;1760932;80;21475;-62
2021/11/19 17:24:52;;;;;;;4.90;2.85;;;;;;;7.31;100.00;98754.91;1759228;80;20947;-62
2021/11/19 17:27:21;;;;;;;2.92;2.62;;;;;;;7.29;100.00;98753.16;1756591;80;21019;-62
2021/11/19 17:29:53;;;;;;;6.92;3.17;;;;;;;7.28;100.00;98748.80;1764193;80;21493;-63
2021/11/19 17:32:25;;;;;;;3.05;2.75;;;;;;;7.27;100.00;98753.16;1756569;80;21019;-61
2021/11/19 17:34:53;;;;;;;4.08;3.25;;;;;;;7.21;100.00;98757.09;1761767;80;21160;-62
2021/11/19 17:37:25;;;;;;;4.15;3.50;;;;;;;7.17;100.00;98755.34;1740903;80;20949;-62
2021/11/19 17:40:02;;;;;;;5.67;4.85;;;;;;;7.17;100.00;98752.72;1766231;80;20946;-62
2021/11/19 17:42:38;;;;;;;7.28;6.45;;;;;;;7.14;100.00;98751.41;1761741;80;21078;-68
2021/11/19 17:45:06;;;;;;;10.25;8.65;;;;;;;7.11;100.00;98750.97;1763380;80;20988;-60
2021/11/19 17:47:35;;;;;;;9.53;8.58;;;;;;;7.08;100.00;98752.67;1765081;80;21141;-62
2021/11/19 17:50:06;;;;;;;9.08;6.80;;;;;;;7.06;100.00;98752.67;1760261;80;21543;-62
2021/11/19 17:52:37;;;;;;;6.55;5.95;;;;;;;7.06;100.00;98759.66;1761045;80;21021;-62
2021/11/19 17:55:11;;;;;;;7.15;6.17;;;;;;;7.04;100.00;98761.41;1763454;80;21056;-60
2021/11/19 17:57:41;;;;;;;7.55;6.70;;;;;;;7.03;100.00;98759.66;1761167;80;21053;-61
2021/11/19 18:00:23;;;;;;;7.03;6.33;;;;;;;7.00;100.00;98763.59;1770976;80;21807;-61
2021/11/19 18:02:51;;;;;;;7.50;6.25;;;;;;;6.99;100.00;98760.09;1759076;80;20989;-61
2021/11/19 18:05:21;;;;;;;7.28;6.58;;;;;;;6.99;100.00;98769.70;1769270;80;21047;-61
2021/11/19 18:07:53;;;;;;;8.58;7.67;;;;;;;6.98;100.00;98768.83;1765027;80;21044;-66
2021/11/19 18:10:21;;;;;;;10.72;8.33;;;;;;;6.97;100.00;98772.33;1746504;80;20984;-60
2021/11/19 18:12:49;;;;;;;8.40;6.47;;;;;;;6.95;100.00;98768.39;1744481;80;21342;-62
2021/11/19 18:15:17;;;;;;;7.72;6.50;;;;;;;6.94;100.00;98763.14;1739282;80;20964;-62
2021/11/19 18:17:50;;;;;;;7.70;5.78;;;;;;;6.94;100.00;98756.59;1745118;82;20896;-62
2021/11/19 18:20:28;;;;;;;6.55;5.50;;;;;;;6.93;100.00;98760.95;1746313;82;20943;-62
2021/11/19 18:22:56;;;;;;;6.05;5.45;;;;;;;6.94;100.00;98756.59;1746186;82;21431;-61
2021/11/19 18:25:29;;;;;;;7.03;5.58;;;;;;;6.94;100.00;98753.53;1746179;82;21214;-61
2021/11/19 18:27:56;;;;;;;6.65;5.72;;;;;;;6.95;100.00;98751.34;1752243;80;21478;-62
2021/11/19 18:30:31;;;;;;;8.68;6.95;;;;;;;6.95;100.00;98736.92;1771286;80;20990;-62
2021/11/19 18:33:01;;;;;;;8.83;7.25;;;;;;;6.97;100.00;98728.19;1772677;80;20999;-62
2021/11/19 18:35:30;;;;;;;6.45;5.62;;;;;;;6.97;100.00;98724.25;1783730;80;20899;-62
2021/11/19 18:38:02;;;;;;;5.85;5.12;;;;;;;6.98;100.00;98720.32;1783311;80;21138;-62
2021/11/19 18:40:42;;;;;;;4.95;4.15;;;;;;;6.98;100.00;98729.94;1773709;80;20937;-62
2021/11/19 18:43:10;;;;;;;4.45;3.90;;;;;;;6.97;100.00;98728.19;1751824;80;21409;-61
2021/11/19 18:45:40;;;;;;;4.53;4.10;;;;;;;6.98;100.00;98731.25;1752666;80;21516;-62
2021/11/19 18:48:09;;;;;;;5.05;4.12;;;;;;;6.95;100.00;98732.12;1752578;80;21020;-62
2021/11/19 18:50:40;;;;;;;6.42;3.85;;;;;;;6.94;100.00;98723.38;1752626;80;21099;-64
2021/11/19 18:53:12;;;;;;;5.83;4.33;;;;;;;6.95;100.00;98737.36;1752354;80;20921;-61
2021/11/19 18:55:37;;;;;;;6.97;5.05;;;;;;;6.97;100.00;98728.19;1752448;80;20977;-62
2021/11/19 18:58:06;;;;;;;6.10;5.50;;;;;;;6.96;100.00;98720.76;1752706;80;21575;-62
2021/11/19 19:00:39;;;;;;;7.05;6.35;;;;;;;6.96;100.00;98720.76;1766998;80;21387;-63
2021/11/19 19:03:08;;;;;;;6.42;5.80;;;;;;;6.95;100.00;98721.19;1783516;80;21008;-62
2021/11/19 19:05:37;;;;;;;5.90;5.30;;;;;;;6.96;100.00;98714.20;1783399;80;21619;-62
2021/11/19 19:08:09;;;;;;;6.12;5.12;;;;;;;6.98;100.00;98725.56;1782626;80;21328;-62
2021/11/19 19:10:40;;;;;;;8.10;5.10;;;;;;;6.98;100.00;98719.45;1781947;80;21084;-62
2021/11/19 19:13:07;;;;;;;8.15;5.90;;;;;;;6.98;100.00;98717.70;1766642;80;21053;-62
2021/11/19 19:15:41;;;;;;;6.03;5.08;;;;;;;6.98;100.00;98728.63;1752563;81;21078;-62
2021/11/19 19:18:10;;;;;;;5.90;5.25;;;;;;;6.97;100.00;98725.12;1754050;80;20961;-63
2021/11/19 19:20:44;;;;;;;6.08;5.47;;;;;;;6.98;100.00;98717.70;1746533;80;21040;-62
2021/11/19 19:23:15;;;;;;;6.97;6.05;;;;;;;6.97;100.00;98719.01;1762728;80;20972;-62
2021/11/19 19:25:45;;;;;;;8.35;6.50;;;;;;;6.94;100.00;98723.38;1695515;84;21551;-62
2021/11/19 19:28:19;;;;;;;6.53;5.78;;;;;;;6.93;100.00;98733.42;1715012;82;21601;-62
2021/11/19 19:31:10;;;;;;;6.37;5.50;;;;;;;6.92;100.00;98714.63;1716622;82;20911;-63
2021/11/19 19:33:38;;;;;;;6.65;5.78;;;;;;;6.92;100.00;98709.39;1724882;82;20926;-63
2021/11/19 19:36:25;;;;;;;6.53;5.90;;;;;;;6.92;100.00;98695.41;1725260;83;21006;-62
2021/11/19 19:38:55;;;;;;;8.40;5.67;;;;;;;6.92;100.00;98696.28;1729413;81;20933;-62
2021/11/19 19:41:36;;;;;;;7.60;5.17;;;;;;;6.90;100.00;98694.53;1716655;82;21956;-63
2021/11/19 19:44:07;;;;;;;6.92;5.10;;;;;;;6.91;100.00;98684.48;1709925;84;20931;-63
2021/11/19 19:46:37;;;;;;;5.78;4.85;;;;;;;6.88;100.00;98695.84;1710009;84;20902;-63
2021/11/19 19:49:06;;;;;;;5.37;4.37;;;;;;;6.88;100.00;98706.77;1709819;82;20911;-64
2021/11/19 19:51:35;;;;;;;5.05;4.45;;;;;;;6.86;100.00;98698.89;1710069;82;20879;-63
2021/11/19 19:54:04;;;;;;;4.95;4.20;;;;;;;6.85;100.00;98692.34;1709788;82;21102;-63
2021/11/19 19:56:36;;;;;;;5.65;3.77;;;;;;;6.85;100.00;98689.28;1709867;84;20988;-63
2021/11/19 19:59:03;;;;;;;4.10;3.75;;;;;;;6.86;100.00;98688.84;1716179;82;20887;-63
2021/11/19 20:01:33;;;;;;;4.78;3.70;;;;;;;6.87;100.00;98677.05;1721015;82;20950;-64
2021/11/19 20:04:01;;;;;;;4.35;3.90;;;;;;;6.87;100.00;98677.48;1694457;83;20919;-62
2021/11/19 20:06:33;;;;;;;5.55;3.90;;;;;;;6.86;100.00;98688.41;1697550;84;21042;-62
2021/11/19 20:09:01;;;;;;;5.75;3.40;;;;;;;6.85;100.00;98694.52;1697346;83;20955;-62
2021/11/19 20:11:30;;;;;;;4.22;3.75;;;;;;;6.86;100.00;98684.48;1697741;83;21447;-63
2021/11/19 20:13:58;;;;;;;7.83;3.90;;;;;;;6.85;100.00;98687.09;1698948;83;20915;-63
2021/11/19 20:16:30;;;;;;;5.05;4.30;;;;;;;6.84;100.00;98682.29;1710522;84;20963;-64
2021/11/19 20:18:58;;;;;;;;;;;;;;;6.83;100.00;98684.91;1712784;84;21091;-63
2021/11/19 20:21:26;;;;;;;5.12;4.30;;;;;;;6.84;100.00;98678.36;1703870;84;20425;-64
2021/11/19 20:23:54;;;;;;;4.95;4.17;;;;;;;6.84;100.00;98678.80;1699423;83;20958;-63
2021/11/19 20:26:26;;;;;;;5.08;4.30;;;;;;;6.83;100.00;98676.61;1699566;84;20906;-63
2021/11/19 20:28:53;;;;;;;8.25;5.62;;;;;;;6.83;100.00;98673.11;1687977;83;25829;-63
2021/11/19 20:31:35;;;;;;;5.75;4.70;;;;;;;6.82;100.00;98668.74;1689718;85;21088;-64
2021/11/19 20:34:08;;;;;;;9.43;4.22;;;;;;;6.83;100.00;98663.50;1697402;84;20871;-64
2021/11/19 20:36:36;;;;;;;7.03;4.25;;;;;;;6.84;100.00;98666.56;1730665;81;20944;-63
2021/11/19 20:39:05;;;;;;;6.03;4.08;;;;;;;6.86;100.00;98672.67;1697315;84;20963;-63
2021/11/19 20:41:39;;;;;;;8.58;4.90;;;;;;;6.86;100.00;98667.44;1710176;83;21443;-62
2021/11/19 20:44:08;;;;;;;5.62;4.08;;;;;;;6.85;100.00;98667.00;1703109;83;21143;-62
2021/11/19 20:46:36;;;;;;;6.33;3.90;;;;;;;6.84;100.00;98663.94;1703302;83;20932;-62
2021/11/19 20:49:06;;;;;;;4.22;3.52;;;;;;;6.86;100.00;98668.75;1709720;84;20915;-62
2021/11/19 20:51:34;;;;;;;3.35;3.05;;;;;;;6.86;100.00;98667.44;1702151;84;20959;-61
2021/11/19 20:54:05;;;;;;;4.72;3.70;;;;;;;6.88;100.00;98665.69;1693080;83;20913;-64
2021/11/19 20:56:38;;;;;;;4.35;3.58;;;;;;;6.88;100.00;98656.51;1693409;83;21758;-63
2021/11/19 20:59:06;;;;;;;4.97;3.77;;;;;;;6.89;100.00;98663.94;1693058;83;20937;-63
2021/11/19 21:01:38;;;;;;;4.33;3.50;;;;;;;6.90;100.00;98656.52;1693308;83;20890;-63
2021/11/19 21:04:09;;;;;;;4.70;3.83;;;;;;;6.90;100.00;98657.38;1693086;83;21449;-63
2021/11/19 21:06:36;;;;;;;7.17;3.80;;;;;;;6.88;100.00;98655.20;1723163;82;21014;-62
2021/11/19 21:09:06;;;;;;;3.55;3.25;;;;;;;6.86;100.00;98651.70;1725130;83;21099;-63
2021/11/19 21:11:36;;;;;;;6.65;3.10;;;;;;;6.85;100.00;98649.08;1725366;82;21426;-63
2021/11/19 21:14:05;;;;;;;6.37;3.00;;;;;;;6.85;100.00;98648.64;1725150;83;21401;-63
2021/11/19 21:16:36;;;;;;;4.70;3.50;;;;;;;6.84;100.00;98647.33;1725446;83;21424;-62
2021/11/19 21:19:06;;;;;;;4.67;3.42;;;;;;;6.84;100.00;98647.33;1723590;82;21490;-63
2021/11/19 21:21:35;;;;;;;4.55;3.17;;;;;;;6.85;100.00;98643.84;1709166;82;21053;-63
2021/11/19 21:24:03;;;;;;;3.70;3.10;;;;;;;6.85;100.00;98638.59;1709587;82;20898;-63
2021/11/19 21:26:39;;;;;;;3.87;2.92;;;;;;;6.86;100.00;98630.73;1709889;84;20890;-63
2021/11/19 21:29:08;;;;;;;3.85;3.45;;;;;;;6.87;100.00;98631.17;1710375;83;20915;-63
2021/11/19 21:31:41;;;;;;;3.98;3.58;;;;;;;6.86;100.00;98625.92;1709353;82;20922;-62
2021/11/19 21:34:09;;;;;;;;;;;;;;;6.86;100.00;98628.55;1710281;83;21418;-63
2021/11/19 21:36:38;;;;;;;4.75;3.37;;;;;;;6.85;100.00;98617.19;1717890;82;20094;-63
2021/11/19 21:39:08;;;;;;;4.10;3.20;;;;;;;6.85;100.00;98622.42;1698804;84;20915;-63
2021/11/19 21:41:38;;;;;;;4.08;3.67;;;;;;;6.86;100.00;98629.42;1658417;84;21442;-64
2021/11/19 21:44:14;;;;;;;4.20;3.80;;;;;;;6.87;100.00;98621.12;1698809;84;20903;-64
2021/11/19 21:46:42;;;;;;;3.60;3.30;;;;;;;6.87;100.00;98623.30;1696910;83;21083;-64
2021/11/19 21:49:13;;;;;;;3.52;3.22;;;;;;;6.88;100.00;98616.31;1698818;84;20906;-63
2021/11/19 21:51:56;;;;;;;6.50;4.15;;;;;;;6.87;100.00;98618.06;1699102;84;20947;-63
2021/11/19 21:54:46;;;;;;;4.75;3.90;;;;;;;6.90;100.00;98626.36;1665001;84;20919;-64
2021/11/19 21:57:18;;;;;;;4.37;3.70;;;;;;;6.91;100.00;98618.93;1699074;84;20918;-62
2021/11/19 21:59:49;;;;;;;4.17;3.77;;;;;;;6.90;100.00;98619.80;1706887;84;21132;-63
2021/11/19 22:02:28;;;;;;;4.10;3.70;;;;;;;6.89;100.00;98608.45;1707390;82;20875;-64
2021/11/19 22:04:55;;;;;;;6.25;4.20;;;;;;;6.89;100.00;98608.45;1701929;82;21010;-63
2021/11/19 22:07:26;;;;;;;4.70;3.80;;;;;;;6.88;100.00;98609.32;1725033;82;21009;-64
2021/11/19 22:09:59;;;;;;;6.07;4.30;;;;;;;6.89;100.00;98607.57;1725328;83;21411;-63
2021/11/19 22:12:26;;;;;;;9.38;4.45;;;;;;;6.88;100.00;98601.45;1723803;82;21085;-63
2021/11/19 22:14:54;;;;;;;4.40;4.00;;;;;;;6.87;100.00;98595.77;1724308;81;20949;-64
2021/11/19 22:17:26;;;;;;;4.03;3.62;;;;;;;6.89;100.00;98597.08;1724755;83;21512;-64
2021/11/19 22:19:57;;;;;;;8.73;4.55;;;;;;;6.90;100.00;98587.91;1724508;81;20965;-63
2021/11/19 22:22:25;;;;;;;8.75;4.25;;;;;;;6.89;100.00;98587.47;1736675;81;21008;-62
2021/11/19 22:24:53;;;;;;;5.78;4.50;;;;;;;6.89;100.00;98578.73;1739611;81;21088;-62
2021/11/19 22:27:25;;;;;;;5.75;4.40;;;;;;;6.87;100.00;98582.67;1739813;81;21414;-63
2021/11/19 22:29:54;;;;;;;6.83;4.53;;;;;;;6.88;100.00;98576.55;1739841;81;20949;-63
2021/11/19 22:32:23;;;;;;;6.08;4.40;;;;;;;6.87;100.00;98577.42;1733130;81;20970;-64
2021/11/19 22:34:50;;;;;;;4.45;3.80;;;;;;;6.87;100.00;98585.72;1724988;82;20855;-64
2021/11/19 22:37:21;;;;;;;7.87;4.03;;;;;;;6.87;100.00;98585.72;1725535;83;21090;-63
2021/11/19 22:39:55;;;;;;;4.83;4.05;;;;;;;6.88;100.00;98584.41;1724315;82;24628;-62
2021/11/19 22:42:26;;;;;;;3.75;3.42;;;;;;;6.89;100.00;98579.61;1698880;84;20990;-62
2021/11/19 22:44:58;;;;;;;5.17;3.33;;;;;;;6.89;100.00;98575.67;1714478;82;21526;-64
2021/11/19 22:47:30;;;;;;;6.08;3.80;;;;;;;6.89;100.00;98574.36;1725019;82;21290;-63
2021/11/19 22:50:02;;;;;;;4.10;3.65;;;;;;;6.90;100.00;98566.93;1724629;83;21954;-63
2021/11/19 22:52:33;;;;;;;4.97;3.50;;;;;;;6.91;100.00;98566.05;1705600;82;20848;-63
2021/11/19 22:55:03;;;;;;;3.83;3.05;;;;;;;6.93;100.00;98566.05;1723511;82;20958;-64
2021/11/19 22:57:32;;;;;;;3.40;3.10;;;;;;;6.94;100.00;98569.11;1678858;84;20998;-64
2021/11/19 23:00:01;;;;;;;4.12;3.50;;;;;;;6.92;100.00;98562.56;1698947;83;20894;-64
2021/11/19 23:02:33;;;;;;;4.97;3.20;;;;;;;6.92;100.00;98570.42;1699172;83;21909;-63
2021/11/19 23:05:04;;;;;;;5.40;3.15;;;;;;;6.94;100.00;98565.18;1724569;82;21492;-63
2021/11/19 23:07:34;;;;;;;5.87;3.65;;;;;;;6.96;100.00;98558.19;1725109;82;20958;-63
2021/11/19 23:10:07;;;;;;;4.78;3.30;;;;;;;6.97;100.00;98552.06;1703225;82;21449;-63
2021/11/19 23:12:39;;;;;;;5.83;3.22;;;;;;;6.97;100.00;98547.26;1704810;84;21453;-65
2021/11/19 23:15:11;;;;;;;4.33;3.25;;;;;;;6.97;100.00;98549.88;1703830;83;21794;-62
2021/11/19 23:17:46;;;;;;;3.70;2.87;;;;;;;6.98;100.00;98549.01;1709902;83;20877;-64
2021/11/19 23:20:21;;;;;;;5.60;2.77;;;;;;;6.99;100.00;98552.06;1708947;83;21461;-65
2021/11/19 23:22:48;;;;;;;2.95;2.65;;;;;;;7.00;100.00;98542.01;1690295;83;21519;-63
2021/11/19 23:25:31;;;;;;;4.12;2.70;;;;;;;7.00;100.00;98533.70;1692119;84;21418;-63
2021/11/19 23:28:00;;;;;;;4.37;2.70;;;;;;;7.00;100.00;98535.45;1687184;84;21050;-63
2021/11/19 23:30:44;;;;;;;4.25;2.40;;;;;;;6.99;100.00;98535.02;1718712;83;20924;-63
2021/11/19 23:33:13;;;;;;;3.40;2.62;;;;;;;6.99;100.00;98528.47;1714648;83;21059;-63
2021/11/19 23:35:49;;;;;;;3.30;2.60;;;;;;;7.00;100.00;98529.77;1709741;82;20950;-63
2021/11/19 23:38:18;;;;;;;2.80;2.60;;;;;;;6.99;100.00;98524.09;1702649;84;20963;-64
2021/11/19 23:40:46;;;;;;;3.55;2.67;;;;;;;6.97;100.00;98527.16;1705279;84;21159;-63
2021/11/19 23:43:30;;;;;;;2.75;2.50;;;;;;;6.97;100.00;98520.60;1677476;85;20958;-64
2021/11/19 23:46:01;;;;;;;2.62;2.42;;;;;;;6.99;100.00;98520.16;1743816;81;20845;-63
2021/11/19 23:48:29;;;;;;;4.40;2.75;;;;;;;7.00;100.00;98521.91;1744671;82;20950;-63
2021/11/19 23:50:56;;;;;;;3.20;2.90;;;;;;;7.01;100.00;98512.29;1745061;81;20935;-63
2021/11/19 23:53:38;;;;;;;4.17;3.02;;;;;;;7.01;100.00;98510.98;1736750;81;21102;-65
2021/11/19 23:56:06;;;;;;;2.95;2.65;;;;;;;7.02;100.00;98514.03;1744225;81;20864;-64
2021/11/19 23:58:36;;;;;;;4.65;3.00;;;;;;;7.02;100.00;98512.28;1727331;81;20947;-63
